sensor_id;sensor_type;location;lat;lon;timestamp;pressure;altitude;pressure_sealevel;temperature;humidity
55916;BME280;41826;53.246;-6.670;2023-04-19T00:00:36;101471.47;;;8.44;100.00
55916;BME280;41826;53.246;-6.670;2023-04-19T00:03:03;101423.53;;;8.44;100.00
55916;BME280;41826;53.246;-6.670;2023-04-19T00:05:28;101381.06;;;8.40;100.00
55916;BME280;41826;53.246;-6.670;2023-04-19T00:07:54;101351.22;;;8.43;100.00
55916;BME280;41826;53.246;-6.670;2023-04-19T00:10:21;101336.41;;;8.31;100.00
55916;BME280;41826;53.246;-6.670;2023-04-19T00:12:46;101324.59;;;8.25;100.00
55916;BME280;41826;53.246;-6.670;2023-04-19T00:15:11;101273.84;;;8.28;100.00
55916;BME280;41826;53.246;-6.670;2023-04-19T00:17:37;101221.53;;;8.28;100.00
55916;BME280;41826;53.246;-6.670;2023-04-19T00:20:04;101179.81;;;8.26;100.00
55916;BME280;41826;53.246;-6.670;2023-04-19T00:22:30;101092.78;;;8.24;100.00
55916;BME280;41826;53.246;-6.670;2023-04-19T00:24:55;101041.78;;;8.30;100.00
55916;BME280;41826;53.246;-6.670;2023-04-19T00:27:21;100938.09;;;8.29;100.00
55916;BME280;41826;53.246;-6.670;2023-04-19T00:29:46;100882.72;;;8.23;100.00
55916;BME280;41826;53.246;-6.670;2023-04-19T00:32:11;100834.31;;;8.29;100.00
55916;BME280;41826;53.246;-6.670;2023-04-19T00:34:37;100796.44;;;8.23;100.00
55916;BME280;41826;53.246;-6.670;2023-04-19T00:37:02;100796.88;;;8.29;100.00
55916;BME280;41826;53.246;-6.670;2023-04-19T00:39:30;100801.66;;;8.23;100.00
55916;BME280;41826;53.246;-6.670;2023-04-19T00:41:56;100849.66;;;7.90;100.00
55916;BME280;41826;53.246;-6.670;2023-04-19T00:44:22;100904.09;;;7.85;100.00
55916;BME280;41826;53.246;-6.670;2023-04-19T00:46:48;100931.50;;;8.02;100.00
55916;BME280;41826;53.246;-6.670;2023-04-19T00:49:14;101063.41;;;7.98;100.00
55916;BME280;41826;53.246;-6.670;2023-04-19T00:51:40;101142.91;;;8.07;100.00
55916;BME280;41826;53.246;-6.670;2023-04-19T00:54:06;101288.75;;;8.03;100.00
55916;BME280;41826;53.246;-6.670;2023-04-19T00:56:33;101480.56;;;8.02;100.00
55916;BME280;41826;53.246;-6.670;2023-04-19T00:58:59;101639.53;;;7.97;100.00
55916;BME280;41826;53.246;-6.670;2023-04-19T01:01:24;101833.00;;;7.97;100.00
55916;BME280;41826;53.246;-6.670;2023-04-19T01:03:49;101997.00;;;7.95;100.00
55916;BME280;41826;53.246;-6.670;2023-04-19T01:06:15;102138.19;;;7.80;100.00
55916;BME280;41826;53.246;-6.670;2023-04-19T01:08:40;102234.38;;;7.90;100.00
55916;BME280;41826;53.246;-6.670;2023-04-19T01:11:06;102313.75;;;7.89;100.00
55916;BME280;41826;53.246;-6.670;2023-04-19T01:13:34;102351.44;;;7.85;100.00
55916;BME280;41826;53.246;-6.670;2023-04-19T01:15:59;102407.94;;;7.71;100.00
55916;BME280;41826;53.246;-6.670;2023-04-19T01:18:25;102499.88;;;7.79;100.00
55916;BME280;41826;53.246;-6.670;2023-04-19T01:20:57;102521.28;;;7.70;100.00
55916;BME280;41826;53.246;-6.670;2023-04-19T01:23:22;102530.94;;;7.86;100.00
55916;BME280;41826;53.246;-6.670;2023-04-19T01:25:47;102541.72;;;7.62;100.00
55916;BME280;41826;53.246;-6.670;2023-04-19T01:28:14;102553.66;;;7.68;100.00
55916;BME280;41826;53.246;-6.670;2023-04-19T01:30:40;102544.59;;;7.57;100.00
55916;BME280;41826;53.246;-6.670;2023-04-19T01:33:05;102555.81;;;7.59;100.00
55916;BME280;41826;53.246;-6.670;2023-04-19T01:35:31;102530.66;;;7.57;100.00
55916;BME280;41826;53.246;-6.670;2023-04-19T01:37:56;102521.94;;;7.58;100.00
55916;BME280;41826;53.246;-6.670;2023-04-19T01:40:25;102521.47;;;7.50;100.00
55916;BME280;41826;53.246;-6.670;2023-04-19T01:42:51;102534.28;;;7.54;100.00
55916;BME280;41826;53.246;-6.670;2023-04-19T01:45:16;102513.53;;;7.51;100.00
55916;BME280;41826;53.246;-6.670;2023-04-19T01:47:42;102527.09;;;7.42;100.00
55916;BME280;41826;53.246;-6.670;2023-04-19T01:50:08;102519.72;;;7.33;100.00
55916;BME280;41826;53.246;-6.670;2023-04-19T01:52:33;102535.31;;;7.34;100.00
55916;BME280;41826;53.246;-6.670;2023-04-19T01:54:58;102542.06;;;7.38;100.00
55916;BME280;41826;53.246;-6.670;2023-04-19T01:57:24;102539.22;;;7.26;100.00
55916;BME280;41826;53.246;-6.670;2023-04-19T01:59:49;102542.06;;;7.21;100.00
55916;BME280;41826;53.246;-6.670;2023-04-19T02:02:16;102552.22;;;7.27;100.00
55916;BME280;41826;53.246;-6.670;2023-04-19T02:04:41;102546.63;;;7.35;100.00
55916;BME280;41826;53.246;-6.670;2023-04-19T02:07:08;102557.13;;;7.33;100.00
55916;BME280;41826;53.246;-6.670;2023-04-19T02:09:34;102551.13;;;7.31;100.00
55916;BME280;41826;53.246;-6.670;2023-04-19T02:12:12;102551.28;;;7.28;100.00
55916;BME280;41826;53.246;-6.670;2023-04-19T02:14:38;102547.22;;;7.23;100.00
55916;BME280;41826;53.246;-6.670;2023-04-19T02:17:03;102545.28;;;7.26;100.00
55916;BME280;41826;53.246;-6.670;2023-04-19T02:19:29;102547.75;;;7.12;100.00
55916;BME280;41826;53.246;-6.670;2023-04-19T02:21:54;102555.50;;;7.13;100.00
55916;BME280;41826;53.246;-6.670;2023-04-19T02:24:23;102570.09;;;7.18;100.00
55916;BME280;41826;53.246;-6.670;2023-04-19T02:26:48;102591.84;;;7.18;100.00
55916;BME280;41826;53.246;-6.670;2023-04-19T02:29:14;102596.91;;;7.21;100.00
55916;BME280;41826;53.246;-6.670;2023-04-19T02:31:41;102580.78;;;7.13;100.00
55916;BME280;41826;53.246;-6.670;2023-04-19T02:34:06;102579.63;;;7.19;100.00
55916;BME280;41826;53.246;-6.670;2023-04-19T02:36:32;102564.31;;;7.11;100.00
55916;BME280;41826;53.246;-6.670;2023-04-19T02:38:57;102575.63;;;7.11;100.00
55916;BME280;41826;53.246;-6.670;2023-04-19T02:41:23;102588.91;;;7.07;100.00
55916;BME280;41826;53.246;-6.670;2023-04-19T02:43:49;102590.00;;;7.20;100.00
55916;BME280;41826;53.246;-6.670;2023-04-19T02:46:14;102619.25;;;7.09;100.00
55916;BME280;41826;53.246;-6.670;2023-04-19T02:48:39;102635.94;;;7.07;100.00
55916;BME280;41826;53.246;-6.670;2023-04-19T02:51:05;102663.31;;;6.98;100.00
55916;BME280;41826;53.246;-6.670;2023-04-19T02:53:30;102677.97;;;7.01;100.00
55916;BME280;41826;53.246;-6.670;2023-04-19T02:55:56;102696.41;;;6.98;100.00
55916;BME280;41826;53.246;-6.670;2023-04-19T02:58:21;102723.31;;;7.00;100.00
55916;BME280;41826;53.246;-6.670;2023-04-19T03:00:46;102746.31;;;6.91;100.00
55916;BME280;41826;53.246;-6.670;2023-04-19T03:03:12;102758.56;;;6.89;100.00
55916;BME280;41826;53.246;-6.670;2023-04-19T03:05:37;102801.78;;;6.97;100.00
55916;BME280;41826;53.246;-6.670;2023-04-19T03:08:03;102834.84;;;6.96;100.00
55916;BME280;41826;53.246;-6.670;2023-04-19T03:10:28;102840.72;;;7.01;100.00
55916;BME280;41826;53.246;-6.670;2023-04-19T03:12:54;102821.44;;;7.04;100.00
55916;BME280;41826;53.246;-6.670;2023-04-19T03:15:19;102816.81;;;6.91;100.00
55916;BME280;41826;53.246;-6.670;2023-04-19T03:17:45;102823.84;;;6.89;100.00
55916;BME280;41826;53.246;-6.670;2023-04-19T03:20:10;102817.22;;;7.01;100.00
55916;BME280;41826;53.246;-6.670;2023-04-19T03:22:36;102810.31;;;7.00;100.00
55916;BME280;41826;53.246;-6.670;2023-04-19T03:25:03;102795.13;;;7.08;100.00
55916;BME280;41826;53.246;-6.670;2023-04-19T03:27:28;102791.59;;;6.90;100.00
55916;BME280;41826;53.246;-6.670;2023-04-19T03:29:55;102783.22;;;7.03;100.00
55916;BME280;41826;53.246;-6.670;2023-04-19T03:32:20;102767.25;;;7.09;100.00
55916;BME280;41826;53.246;-6.670;2023-04-19T03:34:46;102774.78;;;6.96;100.00
55916;BME280;41826;53.246;-6.670;2023-04-19T03:37:12;102805.72;;;6.86;100.00
55916;BME280;41826;53.246;-6.670;2023-04-19T03:39:38;102805.28;;;6.95;100.00
55916;BME280;41826;53.246;-6.670;2023-04-19T03:42:03;102812.22;;;6.97;100.00
55916;BME280;41826;53.246;-6.670;2023-04-19T03:44:32;102807.25;;;6.90;100.00
55916;BME280;41826;53.246;-6.670;2023-04-19T03:46:57;102830.38;;;6.59;100.00
55916;BME280;41826;53.246;-6.670;2023-04-19T03:49:23;102883.09;;;6.67;100.00
55916;BME280;41826;53.246;-6.670;2023-04-19T03:51:48;102911.38;;;6.56;100.00
55916;BME280;41826;53.246;-6.670;2023-04-19T03:54:14;102555.41;;;6.61;100.00
55916;BME280;41826;53.246;-6.670;2023-04-19T03:56:39;102604.19;;;6.59;100.00
55916;BME280;41826;53.246;-6.670;2023-04-19T03:59:04;102627.28;;;6.68;100.00
55916;BME280;41826;53.246;-6.670;2023-04-19T04:01:30;102625.78;;;6.82;100.00
55916;BME280;41826;53.246;-6.670;2023-04-19T04:03:55;102634.50;;;6.81;100.00
55916;BME280;41826;53.246;-6.670;2023-04-19T04:06:20;102640.53;;;6.83;100.00
55916;BME280;41826;53.246;-6.670;2023-04-19T04:08:46;102641.72;;;6.57;100.00
55916;BME280;41826;53.246;-6.670;2023-04-19T04:11:11;102640.94;;;6.55;100.00
55916;BME280;41826;53.246;-6.670;2023-04-19T04:13:36;102635.44;;;6.42;100.00
55916;BME280;41826;53.246;-6.670;2023-04-19T04:16:02;102644.25;;;6.58;100.00
55916;BME280;41826;53.246;-6.670;2023-04-19T04:18:27;102653.28;;;6.70;100.00
55916;BME280;41826;53.246;-6.670;2023-04-19T04:20:53;102661.97;;;6.89;100.00
55916;BME280;41826;53.246;-6.670;2023-04-19T04:23:19;102663.03;;;6.66;100.00
55916;BME280;41826;53.246;-6.670;2023-04-19T04:25:46;102650.19;;;6.62;100.00
55916;BME280;41826;53.246;-6.670;2023-04-19T04:28:11;102659.50;;;6.86;100.00
55916;BME280;41826;53.246;-6.670;2023-04-19T04:30:38;102673.69;;;7.00;100.00
55916;BME280;41826;53.246;-6.670;2023-04-19T04:33:04;102664.50;;;7.10;100.00
55916;BME280;41826;53.246;-6.670;2023-04-19T04:35:30;102660.78;;;6.97;100.00
55916;BME280;41826;53.246;-6.670;2023-04-19T04:37:55;102653.06;;;6.93;100.00
55916;BME280;41826;53.246;-6.670;2023-04-19T04:40:21;102651.75;;;6.85;100.00
55916;BME280;41826;53.246;-6.670;2023-04-19T04:42:46;102648.69;;;6.75;100.00
55916;BME280;41826;53.246;-6.670;2023-04-19T04:45:12;102652.59;;;6.85;100.00
55916;BME280;41826;53.246;-6.670;2023-04-19T04:47:37;102647.31;;;6.87;100.00
55916;BME280;41826;53.246;-6.670;2023-04-19T04:50:03;102651.78;;;6.83;100.00
55916;BME280;41826;53.246;-6.670;2023-04-19T04:52:28;102662.75;;;6.72;100.00
55916;BME280;41826;53.246;-6.670;2023-04-19T04:54:54;102661.50;;;6.81;100.00
55916;BME280;41826;53.246;-6.670;2023-04-19T04:57:19;102655.53;;;6.78;100.00
55916;BME280;41826;53.246;-6.670;2023-04-19T04:59:45;102658.53;;;6.89;100.00
55916;BME280;41826;53.246;-6.670;2023-04-19T05:02:13;102658.44;;;6.90;100.00
55916;BME280;41826;53.246;-6.670;2023-04-19T05:04:38;102663.38;;;6.97;100.00
55916;BME280;41826;53.246;-6.670;2023-04-19T05:07:04;102667.31;;;7.05;100.00
55916;BME280;41826;53.246;-6.670;2023-04-19T05:09:29;102667.69;;;6.98;100.00
55916;BME280;41826;53.246;-6.670;2023-04-19T05:11:54;102667.38;;;7.04;100.00
55916;BME280;41826;53.246;-6.670;2023-04-19T05:14:20;102670.44;;;6.94;100.00
55916;BME280;41826;53.246;-6.670;2023-04-19T05:16:45;102683.41;;;7.15;100.00
55916;BME280;41826;53.246;-6.670;2023-04-19T05:19:10;102687.94;;;6.92;100.00
55916;BME280;41826;53.246;-6.670;2023-04-19T05:21:36;102679.69;;;7.02;100.00
55916;BME280;41826;53.246;-6.670;2023-04-19T05:24:01;102686.75;;;7.00;100.00
55916;BME280;41826;53.246;-6.670;2023-04-19T05:26:27;102687.00;;;6.93;100.00
55916;BME280;41826;53.246;-6.670;2023-04-19T05:28:52;102678.28;;;6.94;100.00
55916;BME280;41826;53.246;-6.670;2023-04-19T05:31:17;102680.84;;;7.13;100.00
55916;BME280;41826;53.246;-6.670;2023-04-19T05:33:45;102675.31;;;7.02;100.00
55916;BME280;41826;53.246;-6.670;2023-04-19T05:36:10;102679.25;;;7.11;100.00
55916;BME280;41826;53.246;-6.670;2023-04-19T05:38:36;102676.72;;;7.09;100.00
55916;BME280;41826;53.246;-6.670;2023-04-19T05:41:02;102672.22;;;6.94;100.00
55916;BME280;41826;53.246;-6.670;2023-04-19T05:43:27;102669.38;;;6.99;100.00
55916;BME280;41826;53.246;-6.670;2023-04-19T05:45:53;102662.22;;;7.21;100.00
55916;BME280;41826;53.246;-6.670;2023-04-19T05:48:18;102676.25;;;7.19;100.00
55916;BME280;41826;53.246;-6.670;2023-04-19T05:50:43;102670.09;;;7.02;100.00
55916;BME280;41826;53.246;-6.670;2023-04-19T05:53:09;102676.94;;;7.05;100.00
55916;BME280;41826;53.246;-6.670;2023-04-19T05:55:34;102665.50;;;7.07;100.00
55916;BME280;41826;53.246;-6.670;2023-04-19T05:57:59;102666.34;;;7.08;100.00
55916;BME280;41826;53.246;-6.670;2023-04-19T06:00:25;102662.09;;;7.05;100.00
55916;BME280;41826;53.246;-6.670;2023-04-19T06:02:52;102668.25;;;7.04;100.00
55916;BME280;41826;53.246;-6.670;2023-04-19T06:05:17;102673.03;;;7.13;100.00
55916;BME280;41826;53.246;-6.670;2023-04-19T06:07:43;102666.59;;;7.21;100.00
55916;BME280;41826;53.246;-6.670;2023-04-19T06:10:08;102665.75;;;7.20;100.00
55916;BME280;41826;53.246;-6.670;2023-04-19T06:12:34;102676.16;;;7.22;100.00
55916;BME280;41826;53.246;-6.670;2023-04-19T06:14:59;102670.97;;;7.20;100.00
55916;BME280;41826;53.246;-6.670;2023-04-19T06:17:25;102682.06;;;7.25;100.00
55916;BME280;41826;53.246;-6.670;2023-04-19T06:19:51;102679.34;;;7.46;100.00
55916;BME280;41826;53.246;-6.670;2023-04-19T06:22:17;102676.69;;;7.28;100.00
55916;BME280;41826;53.246;-6.670;2023-04-19T06:24:46;102670.63;;;7.28;100.00
55916;BME280;41826;53.246;-6.670;2023-04-19T06:27:11;102667.94;;;7.29;100.00
55916;BME280;41826;53.246;-6.670;2023-04-19T06:29:37;102667.53;;;7.20;100.00
55916;BME280;41826;53.246;-6.670;2023-04-19T06:32:02;102676.19;;;7.20;100.00
55916;BME280;41826;53.246;-6.670;2023-04-19T06:34:28;102673.59;;;7.20;100.00
55916;BME280;41826;53.246;-6.670;2023-04-19T06:36:53;102678.09;;;7.35;100.00
55916;BME280;41826;53.246;-6.670;2023-04-19T06:39:19;102678.66;;;7.23;100.00
55916;BME280;41826;53.246;-6.670;2023-04-19T06:41:44;102674.22;;;7.25;100.00
55916;BME280;41826;53.246;-6.670;2023-04-19T06:44:11;102684.09;;;7.37;100.00
55916;BME280;41826;53.246;-6.670;2023-04-19T06:46:37;102679.28;;;7.28;100.00
55916;BME280;41826;53.246;-6.670;2023-04-19T06:49:03;102681.38;;;7.22;100.00
55916;BME280;41826;53.246;-6.670;2023-04-19T06:51:29;102680.44;;;7.23;100.00
55916;BME280;41826;53.246;-6.670;2023-04-19T06:53:54;102675.63;;;7.32;100.00
55916;BME280;41826;53.246;-6.670;2023-04-19T06:56:41;102679.50;;;7.24;100.00
55916;BME280;41826;53.246;-6.670;2023-04-19T06:59:09;102688.44;;;7.20;100.00
55916;BME280;41826;53.246;-6.670;2023-04-19T07:01:35;102678.50;;;7.26;100.00
55916;BME280;41826;53.246;-6.670;2023-04-19T07:04:00;102682.75;;;7.29;100.00
55916;BME280;41826;53.246;-6.670;2023-04-19T07:06:26;102685.22;;;7.32;100.00
55916;BME280;41826;53.246;-6.670;2023-04-19T07:08:51;102686.69;;;7.37;100.00
55916;BME280;41826;53.246;-6.670;2023-04-19T07:11:17;102683.63;;;7.47;100.00
55916;BME280;41826;53.246;-6.670;2023-04-19T07:13:42;102696.06;;;7.24;100.00
55916;BME280;41826;53.246;-6.670;2023-04-19T07:16:08;102690.00;;;7.41;100.00
55916;BME280;41826;53.246;-6.670;2023-04-19T07:18:33;102698.25;;;7.51;100.00
55916;BME280;41826;53.246;-6.670;2023-04-19T07:20:58;102694.47;;;7.56;100.00
55916;BME280;41826;53.246;-6.670;2023-04-19T07:23:24;102698.28;;;8.20;100.00
55916;BME280;41826;53.246;-6.670;2023-04-19T07:25:50;102706.81;;;8.24;100.00
55916;BME280;41826;53.246;-6.670;2023-04-19T07:28:15;102704.75;;;8.31;100.00
55916;BME280;41826;53.246;-6.670;2023-04-19T07:30:41;102720.28;;;7.99;100.00
55916;BME280;41826;53.246;-6.670;2023-04-19T07:33:10;102703.09;;;8.45;100.00
55916;BME280;41826;53.246;-6.670;2023-04-19T07:35:37;102696.25;;;8.43;100.00
55916;BME280;41826;53.246;-6.670;2023-04-19T07:38:03;102706.97;;;8.38;100.00
55916;BME280;41826;53.246;-6.670;2023-04-19T07:40:29;102688.56;;;8.73;100.00
55916;BME280;41826;53.246;-6.670;2023-04-19T07:42:55;102675.03;;;8.32;100.00
55916;BME280;41826;53.246;-6.670;2023-04-19T07:45:21;102672.03;;;8.39;100.00
55916;BME280;41826;53.246;-6.670;2023-04-19T07:47:46;102687.63;;;8.58;100.00
55916;BME280;41826;53.246;-6.670;2023-04-19T07:50:11;102673.94;;;8.36;100.00
55916;BME280;41826;53.246;-6.670;2023-04-19T07:52:37;102675.63;;;8.37;100.00
55916;BME280;41826;53.246;-6.670;2023-04-19T07:55:04;102678.75;;;8.61;100.00
55916;BME280;41826;53.246;-6.670;2023-04-19T07:57:30;102680.38;;;9.11;100.00
55916;BME280;41826;53.246;-6.670;2023-04-19T07:59:57;102676.75;;;9.14;100.00
55916;BME280;41826;53.246;-6.670;2023-04-19T08:02:26;102659.50;;;8.94;100.00
55916;BME280;41826;53.246;-6.670;2023-04-19T08:04:52;102653.44;;;8.77;100.00
55916;BME280;41826;53.246;-6.670;2023-04-19T08:07:18;102646.94;;;8.68;100.00
55916;BME280;41826;53.246;-6.670;2023-04-19T08:09:43;102659.84;;;9.03;100.00
55916;BME280;41826;53.246;-6.670;2023-04-19T08:12:09;102654.28;;;8.94;100.00
55916;BME280;41826;53.246;-6.670;2023-04-19T08:14:34;102651.41;;;8.98;100.00
55916;BME280;41826;53.246;-6.670;2023-04-19T08:17:03;102652.75;;;9.05;100.00
55916;BME280;41826;53.246;-6.670;2023-04-19T08:19:28;102648.28;;;9.07;100.00
55916;BME280;41826;53.246;-6.670;2023-04-19T08:21:54;102650.72;;;9.10;100.00
55916;BME280;41826;53.246;-6.670;2023-04-19T08:24:19;102653.91;;;9.62;100.00
55916;BME280;41826;53.246;-6.670;2023-04-19T08:26:45;102630.56;;;9.73;100.00
55916;BME280;41826;53.246;-6.670;2023-04-19T08:29:18;102600.69;;;10.04;100.00
55916;BME280;41826;53.246;-6.670;2023-04-19T08:31:43;102570.28;;;9.43;100.00
55916;BME280;41826;53.246;-6.670;2023-04-19T08:34:10;102571.75;;;10.06;100.00
55916;BME280;41826;53.246;-6.670;2023-04-19T08:36:35;102553.94;;;9.82;100.00
55916;BME280;41826;53.246;-6.670;2023-04-19T08:39:01;102557.00;;;10.17;100.00
55916;BME280;41826;53.246;-6.670;2023-04-19T08:41:27;102531.25;;;9.81;100.00
55916;BME280;41826;53.246;-6.670;2023-04-19T08:43:56;102518.53;;;10.18;100.00
55916;BME280;41826;53.246;-6.670;2023-04-19T08:46:23;102507.34;;;10.00;100.00
55916;BME280;41826;53.246;-6.670;2023-04-19T08:48:49;102520.78;;;9.95;100.00
55916;BME280;41826;53.246;-6.670;2023-04-19T08:51:16;102532.19;;;10.09;100.00
55916;BME280;41826;53.246;-6.670;2023-04-19T08:53:42;102533.41;;;9.74;100.00
55916;BME280;41826;53.246;-6.670;2023-04-19T08:56:08;102549.97;;;9.61;100.00
55916;BME280;41826;53.246;-6.670;2023-04-19T08:58:34;102547.16;;;9.64;100.00
55916;BME280;41826;53.246;-6.670;2023-04-19T09:01:02;102560.88;;;9.83;100.00
55916;BME280;41826;53.246;-6.670;2023-04-19T09:03:28;102542.41;;;9.99;100.00
55916;BME280;41826;53.246;-6.670;2023-04-19T09:05:53;102540.63;;;9.99;100.00
55916;BME280;41826;53.246;-6.670;2023-04-19T09:08:26;102556.53;;;9.23;100.00
55916;BME280;41826;53.246;-6.670;2023-04-19T09:10:57;102591.41;;;9.70;100.00
55916;BME280;41826;53.246;-6.670;2023-04-19T09:13:23;102591.97;;;9.75;100.00
55916;BME280;41826;53.246;-6.670;2023-04-19T09:15:49;102576.66;;;9.53;100.00
55916;BME280;41826;53.246;-6.670;2023-04-19T09:18:15;102594.03;;;9.70;100.00
55916;BME280;41826;53.246;-6.670;2023-04-19T09:20:42;102599.38;;;9.83;100.00
55916;BME280;41826;53.246;-6.670;2023-04-19T09:23:10;102593.34;;;9.66;100.00
55916;BME280;41826;53.246;-6.670;2023-04-19T09:25:37;102580.63;;;9.74;100.00
55916;BME280;41826;53.246;-6.670;2023-04-19T09:28:13;102593.03;;;10.01;100.00
55916;BME280;41826;53.246;-6.670;2023-04-19T09:30:40;102572.78;;;10.03;100.00
55916;BME280;41826;53.246;-6.670;2023-04-19T09:33:06;102570.03;;;9.76;100.00
55916;BME280;41826;53.246;-6.670;2023-04-19T09:35:47;102561.63;;;10.14;100.00
55916;BME280;41826;53.246;-6.670;2023-04-19T09:38:14;102550.22;;;10.29;100.00
55916;BME280;41826;53.246;-6.670;2023-04-19T09:40:39;102539.03;;;10.26;100.00
55916;BME280;41826;53.246;-6.670;2023-04-19T09:43:06;102533.31;;;10.19;100.00
55916;BME280;41826;53.246;-6.670;2023-04-19T09:45:39;102533.03;;;9.95;100.00
55916;BME280;41826;53.246;-6.670;2023-04-19T09:48:06;102542.88;;;9.77;100.00
55916;BME280;41826;53.246;-6.670;2023-04-19T09:50:32;102554.78;;;10.40;100.00
55916;BME280;41826;53.246;-6.670;2023-04-19T09:52:58;102564.06;;;10.17;100.00
55916;BME280;41826;53.246;-6.670;2023-04-19T09:55:25;102562.38;;;10.30;100.00
55916;BME280;41826;53.246;-6.670;2023-04-19T09:57:51;102575.03;;;10.38;100.00
55916;BME280;41826;53.246;-6.670;2023-04-19T10:00:18;102580.00;;;10.14;100.00
55916;BME280;41826;53.246;-6.670;2023-04-19T10:02:46;102572.66;;;10.48;100.00
55916;BME280;41826;53.246;-6.670;2023-04-19T10:05:19;102554.50;;;10.02;100.00
55916;BME280;41826;53.246;-6.670;2023-04-19T10:07:45;102583.22;;;10.33;100.00
55916;BME280;41826;53.246;-6.670;2023-04-19T10:10:14;102567.25;;;10.36;100.00
55916;BME280;41826;53.246;-6.670;2023-04-19T10:12:41;102562.72;;;10.53;100.00
55916;BME280;41826;53.246;-6.670;2023-04-19T10:15:08;102550.34;;;10.55;100.00
55916;BME280;41826;53.246;-6.670;2023-04-19T10:17:35;102524.84;;;10.43;100.00
55916;BME280;41826;53.246;-6.670;2023-04-19T10:20:08;102542.81;;;9.93;100.00
55916;BME280;41826;53.246;-6.670;2023-04-19T10:22:35;102568.00;;;9.95;100.00
55916;BME280;41826;53.246;-6.670;2023-04-19T10:25:11;102558.81;;;10.17;100.00
55916;BME280;41826;53.246;-6.670;2023-04-19T10:27:41;102560.31;;;10.07;100.00
55916;BME280;41826;53.246;-6.670;2023-04-19T10:30:24;102577.22;;;10.31;100.00
55916;BME280;41826;53.246;-6.670;2023-04-19T10:32:54;102566.72;;;10.31;100.00
55916;BME280;41826;53.246;-6.670;2023-04-19T10:35:21;102563.88;;;10.34;100.00
55916;BME280;41826;53.246;-6.670;2023-04-19T10:38:09;102547.34;;;10.61;100.00
55916;BME280;41826;53.246;-6.670;2023-04-19T10:43:32;102523.50;;;10.64;100.00
55916;BME280;41826;53.246;-6.670;2023-04-19T10:46:53;102501.59;;;10.91;100.00
55916;BME280;41826;53.246;-6.670;2023-04-19T10:48:57;102514.38;;;10.70;100.00
55916;BME280;41826;53.246;-6.670;2023-04-19T10:54:07;102527.25;;;10.60;100.00
55916;BME280;41826;53.246;-6.670;2023-04-19T11:01:37;102535.03;;;10.61;100.00
55916;BME280;41826;53.246;-6.670;2023-04-19T11:06:39;102566.06;;;10.69;100.00
55916;BME280;41826;53.246;-6.670;2023-04-19T11:09:35;102559.09;;;11.22;100.00
55916;BME280;41826;53.246;-6.670;2023-04-19T11:14:30;102550.47;;;11.20;100.00
55916;BME280;41826;53.246;-6.670;2023-04-19T11:16:59;102527.50;;;11.49;100.00
55916;BME280;41826;53.246;-6.670;2023-04-19T11:19:25;102501.38;;;11.34;100.00
55916;BME280;41826;53.246;-6.670;2023-04-19T11:21:50;102497.59;;;11.38;100.00
55916;BME280;41826;53.246;-6.670;2023-04-19T11:24:15;102499.91;;;11.42;100.00
55916;BME280;41826;53.246;-6.670;2023-04-19T11:26:43;102474.84;;;11.24;100.00
55916;BME280;41826;53.246;-6.670;2023-04-19T11:29:10;102480.78;;;11.40;100.00
55916;BME280;41826;53.246;-6.670;2023-04-19T11:31:36;102463.47;;;10.98;100.00
55916;BME280;41826;53.246;-6.670;2023-04-19T11:34:02;102511.03;;;11.20;100.00
55916;BME280;41826;53.246;-6.670;2023-04-19T11:36:27;102510.00;;;11.23;100.00
55916;BME280;41826;53.246;-6.670;2023-04-19T11:38:53;102483.41;;;11.53;100.00
55916;BME280;41826;53.246;-6.670;2023-04-19T11:41:19;102459.09;;;11.24;100.00
55916;BME280;41826;53.246;-6.670;2023-04-19T11:43:44;102431.03;;;10.99;100.00
55916;BME280;41826;53.246;-6.670;2023-04-19T11:46:12;102463.72;;;11.20;100.00
55916;BME280;41826;53.246;-6.670;2023-04-19T11:48:57;102465.59;;;11.44;100.00
55916;BME280;41826;53.246;-6.670;2023-04-19T11:51:23;102459.59;;;11.42;100.00
55916;BME280;41826;53.246;-6.670;2023-04-19T11:53:51;102461.41;;;11.41;100.00
55916;BME280;41826;53.246;-6.670;2023-04-19T11:56:16;102439.44;;;11.42;100.00
55916;BME280;41826;53.246;-6.670;2023-04-19T11:58:43;102394.00;;;11.02;100.00
55916;BME280;41826;53.246;-6.670;2023-04-19T12:01:16;102467.81;;;10.59;100.00
55916;BME280;41826;53.246;-6.670;2023-04-19T12:03:51;102476.44;;;10.61;100.00
55916;BME280;41826;53.246;-6.670;2023-04-19T12:06:22;102496.66;;;10.86;100.00
55916;BME280;41826;53.246;-6.670;2023-04-19T12:08:49;102505.78;;;11.20;100.00
55916;BME280;41826;53.246;-6.670;2023-04-19T12:11:17;102468.22;;;11.18;100.00
55916;BME280;41826;53.246;-6.670;2023-04-19T12:13:43;102492.94;;;11.80;100.00
55916;BME280;41826;53.246;-6.670;2023-04-19T12:16:09;102458.41;;;11.84;100.00
55916;BME280;41826;53.246;-6.670;2023-04-19T12:18:51;102408.63;;;11.44;100.00
55916;BME280;41826;53.246;-6.670;2023-04-19T12:21:24;102400.94;;;11.03;100.00
55916;BME280;41826;53.246;-6.670;2023-04-19T12:23:53;102413.31;;;11.39;100.00
55916;BME280;41826;53.246;-6.670;2023-04-19T12:26:18;102454.91;;;11.47;100.00
55916;BME280;41826;53.246;-6.670;2023-04-19T12:28:43;102462.97;;;11.18;100.00
55916;BME280;41826;53.246;-6.670;2023-04-19T12:31:09;102445.63;;;11.41;100.00
55916;BME280;41826;53.246;-6.670;2023-04-19T12:33:34;102418.06;;;10.96;100.00
55916;BME280;41826;53.246;-6.670;2023-04-19T12:36:00;102459.19;;;11.61;100.00
55916;BME280;41826;53.246;-6.670;2023-04-19T12:38:25;102411.53;;;11.65;100.00
55916;BME280;41826;53.246;-6.670;2023-04-19T12:40:50;102415.53;;;11.58;100.00
55916;BME280;41826;53.246;-6.670;2023-04-19T12:43:16;102457.50;;;11.73;100.00
55916;BME280;41826;53.246;-6.670;2023-04-19T12:45:41;102418.28;;;11.18;100.00
55916;BME280;41826;53.246;-6.670;2023-04-19T12:48:06;102395.78;;;11.40;100.00
55916;BME280;41826;53.246;-6.670;2023-04-19T12:50:32;102392.59;;;11.60;100.00